createdAt,value
2022-10-06T00:00:06.237Z,78.49
2022-10-06T00:02:35.748Z,77.79
2022-10-06T00:05:02.430Z,77.56
2022-10-06T00:07:29.030Z,77.49
2022-10-06T00:09:55.667Z,77.46
2022-10-06T00:12:22.237Z,77.55
2022-10-06T00:14:48.772Z,77.16
2022-10-06T00:17:15.352Z,78.27
2022-10-06T00:19:41.939Z,78.34
2022-10-06T00:22:08.526Z,78.95
2022-10-06T00:24:35.262Z,79.27
2022-10-06T00:27:02.022Z,79.92
2022-10-06T00:29:28.822Z,80.17
2022-10-06T00:31:55.500Z,79.98
2022-10-06T00:34:22.100Z,80.07
2022-10-06T00:36:48.765Z,80.12
2022-10-06T00:39:15.338Z,80.29
2022-10-06T00:41:42.313Z,80.43
2022-10-06T00:44:08.939Z,81.33
2022-10-06T00:46:50.577Z,81.92
2022-10-06T00:49:24.173Z,82.64
2022-10-06T00:52:06.638Z,82.99
2022-10-06T00:54:34.126Z,83.76
2022-10-06T00:57:01.011Z,84.32
2022-10-06T00:59:27.596Z,84.74
2022-10-06T01:02:07.908Z,85.82
2022-10-06T01:04:36.863Z,86.78
2022-10-06T01:07:04.306Z,87.15
2022-10-06T01:09:31.655Z,87.68
2022-10-06T01:12:00.989Z,87.52
2022-10-06T01:14:28.667Z,87.17
2022-10-06T01:16:59.745Z,86.25
2022-10-06T01:19:35.975Z,85.68
2022-10-06T01:22:05.753Z,85.49
2022-10-06T01:24:35.535Z,85.02
2022-10-06T01:27:04.160Z,84.92
2022-10-06T01:29:33.209Z,85.30
2022-10-06T01:32:00.185Z,85.33
2022-10-06T01:34:28.052Z,84.93
2022-10-06T01:36:55.125Z,84.73
2022-10-06T01:39:22.257Z,84.97
2022-10-06T01:41:49.103Z,84.91
2022-10-06T01:44:15.790Z,85.39
2022-10-06T01:46:42.527Z,85.29
2022-10-06T01:49:09.164Z,85.33
2022-10-06T01:51:35.762Z,85.40
2022-10-06T01:54:02.744Z,85.73
2022-10-06T01:56:29.313Z,86.32
2022-10-06T01:58:57.551Z,86.85
2022-10-06T02:01:24.264Z,87.41
2022-10-06T02:03:54.026Z,87.60
2022-10-06T02:06:20.641Z,86.72
2022-10-06T02:08:47.421Z,87.29
2022-10-06T02:11:14.223Z,85.75
2022-10-06T02:13:41.770Z,85.89
2022-10-06T02:16:09.512Z,85.31
2022-10-06T02:18:36.638Z,84.90
2022-10-06T02:21:05.668Z,84.25
2022-10-06T02:23:32.660Z,83.59
2022-10-06T02:26:00.955Z,83.76
2022-10-06T02:28:28.714Z,83.25
2022-10-06T02:31:01.230Z,83.09
2022-10-06T02:33:27.940Z,82.61
2022-10-06T02:35:58.293Z,82.33
2022-10-06T02:38:27.486Z,81.94
2022-10-06T02:40:55.119Z,82.74
2022-10-06T02:43:22.320Z,82.70
2022-10-06T02:45:56.493Z,82.35
2022-10-06T02:48:24.405Z,82.61
2022-10-06T02:51:09.541Z,82.35
2022-10-06T02:53:37.614Z,82.31
2022-10-06T02:56:10.890Z,83.28
2022-10-06T02:58:39.837Z,83.07
2022-10-06T03:01:10.528Z,83.34
2022-10-06T03:03:37.841Z,83.40
2022-10-06T03:06:21.638Z,82.98
2022-10-06T03:08:55.895Z,83.06
2022-10-06T03:11:24.987Z,83.97
2022-10-06T03:13:52.199Z,83.32
2022-10-06T03:16:26.855Z,83.27
2022-10-06T03:18:55.486Z,82.52
2022-10-06T03:21:27.848Z,82.98
2022-10-06T03:23:56.502Z,83.85
2022-10-06T03:26:27.871Z,83.49
2022-10-06T03:28:55.562Z,83.59
2022-10-06T03:31:23.029Z,83.60
2022-10-06T03:33:50.759Z,83.81
2022-10-06T03:36:20.410Z,83.92
2022-10-06T03:38:47.209Z,83.06
2022-10-06T03:41:18.462Z,82.65
2022-10-06T03:43:46.940Z,82.85
2022-10-06T03:46:15.785Z,81.60
2022-10-06T03:48:42.745Z,81.55
2022-10-06T03:51:15.012Z,81.17
2022-10-06T03:53:45.257Z,80.86
2022-10-06T03:56:20.169Z,80.22
2022-10-06T03:58:53.376Z,79.86
2022-10-06T04:01:26.275Z,80.02
2022-10-06T04:03:55.397Z,80.28
2022-10-06T04:06:23.167Z,79.85
2022-10-06T04:08:51.175Z,79.47
2022-10-06T04:11:22.216Z,79.57
2022-10-06T04:13:53.726Z,79.92
2022-10-06T04:16:23.145Z,79.94
2022-10-06T04:18:51.565Z,80.22
2022-10-06T04:21:18.456Z,80.49
2022-10-06T04:23:45.306Z,80.18
2022-10-06T04:26:17.608Z,79.93
2022-10-06T04:28:48.216Z,79.27
2022-10-06T04:31:20.898Z,79.57
2022-10-06T04:33:50.882Z,79.22
2022-10-06T04:36:23.466Z,79.13
2022-10-06T04:38:59.276Z,78.65
2022-10-06T04:41:33.129Z,78.45
2022-10-06T04:44:00.757Z,79.36
2022-10-06T04:46:42.602Z,79.36
2022-10-06T04:49:17.623Z,79.02
2022-10-06T04:51:46.081Z,79.28
2022-10-06T04:54:12.875Z,79.60
2022-10-06T04:56:40.251Z,79.23
2022-10-06T04:59:07.032Z,79.52
2022-10-06T05:01:37.803Z,78.62
2022-10-06T05:04:11.642Z,79.38
2022-10-06T05:06:41.031Z,79.92
2022-10-06T05:09:10.837Z,79.63
2022-10-06T05:11:39.927Z,80.07
2022-10-06T05:14:09.459Z,79.85
2022-10-06T05:16:40.095Z,79.68
2022-10-06T05:19:08.258Z,79.18
2022-10-06T05:21:37.396Z,78.51
2022-10-06T05:24:05.432Z,78.53
2022-10-06T05:26:34.897Z,78.71
2022-10-06T05:29:04.018Z,78.82
2022-10-06T05:31:32.752Z,78.42
2022-10-06T05:34:02.479Z,78.67
2022-10-06T05:36:31.325Z,78.70
2022-10-06T05:38:58.524Z,79.62
2022-10-06T05:41:29.041Z,80.85
2022-10-06T05:43:58.437Z,81.00
2022-10-06T05:46:28.482Z,81.34
2022-10-06T05:49:03.163Z,81.66
2022-10-06T05:51:34.080Z,81.25
2022-10-06T05:54:05.271Z,81.98
2022-10-06T05:56:37.744Z,81.69
2022-10-06T05:59:05.127Z,81.29
2022-10-06T06:01:39.928Z,81.64
2022-10-06T06:04:13.698Z,80.89
2022-10-06T06:06:48.941Z,81.25
2022-10-06T06:09:21.269Z,81.51
2022-10-06T06:11:53.702Z,81.16
2022-10-06T06:14:59.351Z,81.03
2022-10-06T06:17:32.211Z,80.23
2022-10-06T06:20:01.169Z,80.12
2022-10-06T06:22:28.218Z,80.33
2022-10-06T06:24:54.825Z,79.94
2022-10-06T06:27:21.553Z,79.93
2022-10-06T06:29:48.292Z,80.24
2022-10-06T06:32:15.295Z,79.71
2022-10-06T06:34:42.297Z,79.70
2022-10-06T06:37:15.020Z,79.61
2022-10-06T06:39:42.825Z,80.79
2022-10-06T06:42:09.581Z,79.88
2022-10-06T06:44:51.700Z,79.82
2022-10-06T06:47:30.173Z,79.51
2022-10-06T06:50:00.045Z,80.12
2022-10-06T06:52:27.959Z,79.14
2022-10-06T06:54:54.729Z,78.94
2022-10-06T06:57:21.323Z,79.10
2022-10-06T06:59:50.663Z,78.71
2022-10-06T07:02:18.398Z,78.81
2022-10-06T07:04:47.222Z,78.12
2022-10-06T07:07:16.863Z,78.59
2022-10-06T07:09:43.648Z,78.21
2022-10-06T07:12:12.407Z,77.76
2022-10-06T07:15:09.143Z,78.38
2022-10-06T07:17:58.526Z,77.85
2022-10-06T07:20:43.673Z,77.21
2022-10-06T07:23:34.879Z,77.06
2022-10-06T07:26:03.943Z,76.85
2022-10-06T07:28:30.870Z,77.08
2022-10-06T07:31:00.673Z,77.71
2022-10-06T07:33:31.146Z,76.79
2022-10-06T07:35:57.981Z,76.40
2022-10-06T07:38:26.006Z,76.72
2022-10-06T07:41:17.919Z,76.28
2022-10-06T07:43:43.445Z,76.33
2022-10-06T07:46:11.653Z,75.96
2022-10-06T07:48:44.538Z,75.70
2022-10-06T07:51:17.161Z,75.84
2022-10-06T07:53:50.843Z,75.98
2022-10-06T07:56:50.148Z,76.27
2022-10-06T07:59:19.390Z,75.78
2022-10-06T08:01:46.153Z,75.88
2022-10-06T08:04:13.828Z,76.15
2022-10-06T08:06:41.903Z,75.69
2022-10-06T08:09:08.692Z,75.31
2022-10-06T08:11:35.456Z,75.44
2022-10-06T08:14:02.037Z,75.92
2022-10-06T08:16:30.377Z,75.83
2022-10-06T08:18:58.572Z,75.10
2022-10-06T08:21:28.202Z,74.67
2022-10-06T08:23:56.575Z,74.66
2022-10-06T08:26:25.132Z,75.03
2022-10-06T08:28:53.898Z,74.04
2022-10-06T08:31:22.153Z,73.94
2022-10-06T08:33:49.226Z,73.84
2022-10-06T08:36:19.156Z,73.79
2022-10-06T08:38:50.315Z,73.46
2022-10-06T08:41:21.848Z,72.60
2022-10-06T08:44:05.176Z,72.20
2022-10-06T08:46:37.419Z,72.31
2022-10-06T08:49:05.766Z,71.97
2022-10-06T08:51:57.127Z,73.19
2022-10-06T08:54:29.813Z,73.13
2022-10-06T08:57:03.669Z,72.77
2022-10-06T08:59:33.659Z,72.68
2022-10-06T09:02:00.790Z,73.00
2022-10-06T09:04:31.585Z,73.07
2022-10-06T09:07:11.262Z,72.36
2022-10-06T09:10:03.836Z,70.75
2022-10-06T09:12:55.051Z,70.24
2022-10-06T09:15:49.061Z,71.10
2022-10-06T09:21:38.359Z,69.73
2022-10-06T09:24:10.649Z,68.97
2022-10-06T09:26:43.471Z,69.70
2022-10-06T09:29:10.643Z,69.03
2022-10-06T09:31:39.297Z,68.79
2022-10-06T09:34:17.081Z,68.40
2022-10-06T09:37:11.043Z,68.71
2022-10-06T09:39:43.269Z,69.11
2022-10-06T09:42:09.911Z,68.84
2022-10-06T09:45:00.860Z,68.70
2022-10-06T09:47:34.682Z,68.56
2022-10-06T09:50:26.440Z,68.40
2022-10-06T09:53:05.174Z,67.63
2022-10-06T09:55:37.958Z,67.44
2022-10-06T09:58:21.160Z,67.90
2022-10-06T10:00:49.216Z,67.25
2022-10-06T10:03:15.978Z,67.65
2022-10-06T10:05:50.544Z,66.02
2022-10-06T10:08:26.084Z,66.48
2022-10-06T10:11:08.029Z,66.51
2022-10-06T10:13:43.831Z,64.79
2022-10-06T10:16:16.612Z,64.10
2022-10-06T10:18:47.329Z,62.95
2022-10-06T10:21:23.897Z,63.23
2022-10-06T10:23:56.358Z,62.58
2022-10-06T10:26:47.529Z,62.39
2022-10-06T10:29:45.297Z,62.44
2022-10-06T10:32:18.147Z,62.51
2022-10-06T10:34:54.208Z,62.56
2022-10-06T10:37:31.738Z,62.07
2022-10-06T10:39:59.282Z,60.94
2022-10-06T10:42:28.617Z,61.63
2022-10-06T10:45:01.064Z,61.96
2022-10-06T10:47:38.872Z,62.05
2022-10-06T10:50:31.705Z,61.30
2022-10-06T10:53:21.129Z,61.11
2022-10-06T10:55:48.342Z,61.35
2022-10-06T10:58:26.154Z,59.86
2022-10-06T11:00:56.776Z,59.47
2022-10-06T11:03:23.431Z,59.25
2022-10-06T11:06:14.877Z,58.72
2022-10-06T11:08:49.930Z,59.15
2022-10-06T11:11:28.544Z,58.03
2022-10-06T11:13:56.635Z,58.37
2022-10-06T11:16:33.596Z,57.57
2022-10-06T11:19:27.659Z,56.21
2022-10-06T11:22:15.018Z,56.48
2022-10-06T11:25:20.576Z,56.50
2022-10-06T11:27:59.202Z,55.21
2022-10-06T11:30:26.803Z,54.60
2022-10-06T11:33:16.713Z,54.33
2022-10-06T11:35:45.208Z,53.42
2022-10-06T11:38:37.721Z,54.49
2022-10-06T11:41:09.933Z,54.09
2022-10-06T11:43:42.810Z,54.03
2022-10-06T11:46:36.953Z,53.81
2022-10-06T11:49:29.260Z,53.04
2022-10-06T11:52:08.618Z,52.88
2022-10-06T11:54:47.852Z,53.30
2022-10-06T11:57:29.365Z,53.12
2022-10-06T12:00:17.607Z,52.48
2022-10-06T12:02:45.968Z,52.96
2022-10-06T12:05:55.268Z,52.78
2022-10-06T12:08:00.382Z,52.71
2022-10-06T12:10:29.862Z,52.60
2022-10-06T12:14:01.555Z,53.01
2022-10-06T12:19:19.560Z,51.42
2022-10-06T12:22:01.408Z,49.70
2022-10-06T12:24:44.746Z,49.84
2022-10-06T12:27:29.654Z,50.84
2022-10-06T12:30:21.132Z,52.23
2022-10-06T12:32:53.922Z,50.88
2022-10-06T12:35:33.549Z,49.32
2022-10-06T12:38:05.982Z,49.73
2022-10-06T12:40:46.667Z,49.88
2022-10-06T12:43:19.021Z,50.56
2022-10-06T12:46:16.204Z,50.27
2022-10-06T12:49:01.474Z,50.25
2022-10-06T12:51:40.379Z,50.94
2022-10-06T12:54:25.328Z,49.65
2022-10-06T12:57:00.743Z,49.62
2022-10-06T12:59:34.906Z,49.89
2022-10-06T13:02:20.335Z,50.40
2022-10-06T13:05:01.198Z,50.26
2022-10-06T13:07:30.920Z,51.93
2022-10-06T13:10:30.473Z,51.68
2022-10-06T13:12:58.175Z,51.21
2022-10-06T13:15:29.639Z,51.36
2022-10-06T13:18:13.349Z,48.77
2022-10-06T13:20:42.855Z,49.50
2022-10-06T13:23:20.315Z,49.09
2022-10-06T13:25:55.749Z,50.12
2022-10-06T13:28:33.107Z,50.38
2022-10-06T13:31:14.930Z,50.49
2022-10-06T13:33:43.912Z,51.49
2022-10-06T13:36:12.315Z,51.76
2022-10-06T13:38:41.255Z,52.03
2022-10-06T13:41:20.247Z,52.14
2022-10-06T13:43:50.245Z,52.03
2022-10-06T13:46:19.811Z,52.49
2022-10-06T13:48:55.361Z,52.37
2022-10-06T13:51:25.560Z,51.94
2022-10-06T13:53:52.444Z,52.36
2022-10-06T13:59:01.518Z,51.52
2022-10-06T14:01:29.849Z,50.99
2022-10-06T14:04:18.320Z,50.43
2022-10-06T14:06:51.051Z,51.41
2022-10-06T14:09:23.068Z,51.62
2022-10-06T14:12:26.136Z,50.15
2022-10-06T14:15:05.632Z,50.88
2022-10-06T14:17:32.371Z,51.44
2022-10-06T14:19:59.359Z,51.20
2022-10-06T14:22:42.341Z,51.06
2022-10-06T14:25:12.615Z,51.26
2022-10-06T14:27:39.249Z,50.56
2022-10-06T14:30:06.959Z,50.58
2022-10-06T14:32:33.704Z,50.65
2022-10-06T14:35:01.452Z,49.51
2022-10-06T14:37:28.060Z,49.76
2022-10-06T14:39:56.073Z,50.49
2022-10-06T14:42:24.423Z,50.63
2022-10-06T14:44:51.154Z,48.56
2022-10-06T14:47:17.771Z,48.99
2022-10-06T14:49:45.273Z,49.34
2022-10-06T14:52:12.154Z,49.51
2022-10-06T14:54:39.271Z,49.31
2022-10-06T14:57:06.003Z,48.49
2022-10-06T14:59:41.400Z,49.06
2022-10-06T15:02:11.802Z,50.03
2022-10-06T15:04:41.244Z,49.10
2022-10-06T15:07:26.535Z,49.22
2022-10-06T15:09:53.179Z,48.67
2022-10-06T15:12:19.778Z,49.01
2022-10-06T15:14:46.424Z,49.94
2022-10-06T15:17:13.119Z,49.46
2022-10-06T15:19:40.322Z,49.46
2022-10-06T15:22:08.973Z,49.50
2022-10-06T15:24:36.318Z,49.50
2022-10-06T15:27:24.842Z,48.88
2022-10-06T15:29:56.753Z,49.03
2022-10-06T15:32:23.412Z,48.65
2022-10-06T15:34:51.913Z,48.47
2022-10-06T15:37:19.836Z,47.78
2022-10-06T15:39:46.730Z,46.94
2022-10-06T15:42:15.412Z,47.92
2022-10-06T15:44:41.995Z,48.21
2022-10-06T15:47:08.634Z,47.88
2022-10-06T15:49:40.477Z,49.22
2022-10-06T15:52:08.414Z,49.09
2022-10-06T15:54:46.436Z,48.15
2022-10-06T15:57:20.324Z,48.40
2022-10-06T15:59:47.480Z,48.34
2022-10-06T16:02:17.282Z,48.68
2022-10-06T16:04:45.507Z,48.85
2022-10-06T16:07:14.381Z,49.72
2022-10-06T16:09:46.559Z,49.80
2022-10-06T16:12:16.528Z,50.37
2022-10-06T16:14:43.436Z,51.10
2022-10-06T16:17:18.042Z,50.88
2022-10-06T16:19:45.151Z,50.68
2022-10-06T16:22:14.431Z,50.90
2022-10-06T16:24:41.138Z,51.01
2022-10-06T16:27:11.137Z,50.91
2022-10-06T16:29:37.715Z,51.30
2022-10-06T16:32:04.441Z,51.03
2022-10-06T16:34:34.271Z,51.24
2022-10-06T16:37:00.887Z,51.23
2022-10-06T16:39:36.375Z,52.21
2022-10-06T16:42:24.534Z,52.39
2022-10-06T16:44:51.344Z,52.87
2022-10-06T16:47:17.963Z,52.66
2022-10-06T16:49:48.021Z,53.29
2022-10-06T16:52:16.559Z,53.27
2022-10-06T16:54:43.312Z,53.20
2022-10-06T16:57:10.427Z,53.69
2022-10-06T16:59:37.164Z,53.86
2022-10-06T17:02:03.789Z,54.21
2022-10-06T17:04:30.495Z,53.92
2022-10-06T17:06:57.565Z,54.77
2022-10-06T17:09:29.025Z,55.10
2022-10-06T17:12:06.593Z,55.08
2022-10-06T17:14:46.522Z,55.73
2022-10-06T17:17:13.478Z,55.75
2022-10-06T17:19:40.097Z,56.08
2022-10-06T17:22:06.674Z,56.36
2022-10-06T17:24:33.254Z,56.77
2022-10-06T17:27:01.019Z,57.33
2022-10-06T17:29:28.269Z,57.52
2022-10-06T17:31:58.989Z,57.54
2022-10-06T17:34:31.356Z,57.77
2022-10-06T17:36:59.271Z,57.95
2022-10-06T17:39:25.994Z,58.80
2022-10-06T17:41:54.195Z,58.87
2022-10-06T17:44:24.139Z,59.07
2022-10-06T17:46:53.413Z,59.04
2022-10-06T17:49:24.078Z,59.31
2022-10-06T17:51:53.551Z,59.87
2022-10-06T17:54:22.280Z,59.69
2022-10-06T17:56:51.272Z,60.13
2022-10-06T17:59:23.558Z,60.50
2022-10-06T18:01:51.973Z,60.99
2022-10-06T18:04:19.986Z,61.13
2022-10-06T18:06:47.371Z,60.81
2022-10-06T18:09:14.921Z,61.02
2022-10-06T18:11:44.033Z,61.42
2022-10-06T18:14:16.358Z,62.09
2022-10-06T18:16:46.410Z,62.03
2022-10-06T18:19:16.804Z,61.76
2022-10-06T18:21:45.511Z,61.92
2022-10-06T18:24:22.513Z,62.29
2022-10-06T18:26:50.582Z,62.64
2022-10-06T18:29:19.076Z,63.07
2022-10-06T18:31:48.678Z,63.19
2022-10-06T18:36:10.761Z,63.40
2022-10-06T18:37:02.214Z,63.87
2022-10-06T18:39:31.335Z,64.33
2022-10-06T18:42:02.345Z,64.01
2022-10-06T18:44:47.827Z,64.08
2022-10-06T18:47:32.969Z,64.15
2022-10-06T18:49:59.642Z,64.73
2022-10-06T18:52:26.219Z,64.38
2022-10-06T18:54:52.826Z,64.64
2022-10-06T18:57:25.070Z,64.83
2022-10-06T18:59:54.293Z,64.60
2022-10-06T19:02:21.080Z,64.91
2022-10-06T19:04:48.396Z,65.09
2022-10-06T19:07:15.029Z,65.76
2022-10-06T19:09:46.637Z,65.17
2022-10-06T19:12:13.813Z,65.79
2022-10-06T19:14:47.152Z,66.91
2022-10-06T19:17:18.119Z,67.36
2022-10-06T19:19:51.245Z,67.46
2022-10-06T19:22:19.621Z,68.25
2022-10-06T19:24:48.491Z,68.44
2022-10-06T19:27:23.897Z,68.31
2022-10-06T19:29:56.646Z,68.42
2022-10-06T19:32:26.844Z,68.80
2022-10-06T19:34:57.832Z,68.61
2022-10-06T19:37:26.997Z,68.89
2022-10-06T19:39:53.714Z,69.08
2022-10-06T19:42:38.803Z,69.63
2022-10-06T19:45:07.326Z,69.73
2022-10-06T19:47:34.017Z,69.75
2022-10-06T19:50:04.691Z,70.45
2022-10-06T19:52:33.217Z,70.50
2022-10-06T19:55:00.864Z,70.66
2022-10-06T19:57:29.196Z,71.95
2022-10-06T19:59:56.978Z,71.31
2022-10-06T20:02:23.669Z,72.04
2022-10-06T20:04:53.822Z,72.89
2022-10-06T20:07:29.049Z,72.86
2022-10-06T20:09:56.428Z,73.11
2022-10-06T20:12:28.234Z,73.69
2022-10-06T20:14:54.983Z,73.46
2022-10-06T20:17:22.159Z,74.11
2022-10-06T20:19:52.811Z,73.96
2022-10-06T20:22:28.758Z,74.27
2022-10-06T20:24:59.143Z,74.17
2022-10-06T20:27:27.050Z,74.32
2022-10-06T20:29:55.020Z,74.38
2022-10-06T20:32:21.982Z,74.67
2022-10-06T20:34:48.621Z,74.70
2022-10-06T20:37:15.256Z,75.47
2022-10-06T20:40:00.668Z,74.96
2022-10-06T20:42:27.938Z,75.28
2022-10-06T20:44:54.644Z,75.22
2022-10-06T20:47:21.397Z,74.75
2022-10-06T20:49:54.137Z,75.87
2022-10-06T20:52:23.111Z,75.44
2022-10-06T20:54:49.887Z,75.49
2022-10-06T20:57:16.466Z,75.68
2022-10-06T20:59:45.208Z,75.36
2022-10-06T21:02:11.747Z,75.88
2022-10-06T21:04:40.799Z,77.05
2022-10-06T21:07:08.075Z,76.82
2022-10-06T21:09:34.741Z,76.74
2022-10-06T21:12:02.375Z,76.77
2022-10-06T21:14:31.742Z,77.21
2022-10-06T21:17:00.366Z,76.77
2022-10-06T21:19:29.908Z,76.51
2022-10-06T21:21:56.766Z,76.28
2022-10-06T21:24:30.087Z,77.23
2022-10-06T21:26:58.145Z,76.60
2022-10-06T21:29:26.775Z,76.61
2022-10-06T21:31:53.636Z,77.30
2022-10-06T21:34:20.352Z,76.81
2022-10-06T21:36:49.858Z,76.68
2022-10-06T21:39:16.583Z,76.30
2022-10-06T21:41:46.477Z,76.47
2022-10-06T21:44:22.362Z,76.41
2022-10-06T21:46:54.786Z,75.94
2022-10-06T21:49:33.668Z,75.38
2022-10-06T21:52:04.811Z,76.37
2022-10-06T21:54:31.685Z,76.47
2022-10-06T21:57:40.290Z,76.90
2022-10-06T22:00:57.309Z,76.78
2022-10-06T22:03:24.809Z,78.34
2022-10-06T22:05:54.816Z,78.99
2022-10-06T22:08:41.717Z,78.99
2022-10-06T22:11:16.726Z,79.25
2022-10-06T22:13:45.598Z,79.27
2022-10-06T22:16:15.503Z,79.51
2022-10-06T22:18:43.185Z,79.89
2022-10-06T22:21:14.984Z,79.43
2022-10-06T22:23:47.262Z,79.40
2022-10-06T22:26:15.267Z,79.57
2022-10-06T22:28:47.041Z,79.23
2022-10-06T22:31:19.987Z,78.91
2022-10-06T22:33:51.902Z,79.49
2022-10-06T22:36:18.493Z,80.57
2022-10-06T22:38:45.430Z,80.60
2022-10-06T22:41:13.336Z,80.77
2022-10-06T22:43:40.414Z,80.10
2022-10-06T22:46:08.460Z,79.75
2022-10-06T22:48:41.571Z,80.40
2022-10-06T22:51:08.324Z,80.61
2022-10-06T22:53:35.317Z,79.36
2022-10-06T22:56:04.059Z,79.91
2022-10-06T22:58:31.010Z,79.40
2022-10-06T23:01:20.702Z,79.45
2022-10-06T23:03:47.850Z,79.74
2022-10-06T23:06:24.507Z,79.50
2022-10-06T23:08:56.123Z,79.51
2022-10-06T23:12:10.286Z,80.07
2022-10-06T23:14:39.532Z,80.41
2022-10-06T23:22:36.606Z,79.98
2022-10-06T23:25:08.465Z,80.35
2022-10-06T23:28:12.200Z,81.13
2022-10-06T23:31:29.844Z,81.13
2022-10-06T23:33:56.826Z,80.81
2022-10-06T23:36:23.651Z,80.86
2022-10-06T23:38:50.402Z,81.19
2022-10-06T23:41:17.463Z,81.21
2022-10-06T23:43:44.167Z,81.14
2022-10-06T23:46:14.638Z,81.07
2022-10-06T23:48:41.371Z,81.41
2022-10-06T23:51:10.396Z,81.02
2022-10-06T23:53:37.060Z,81.13
2022-10-06T23:56:04.850Z,81.16
2022-10-06T23:58:31.533Z,81.54
